createdAt,value
2019-03-31T00:02:59.580Z,9.31
2019-03-31T00:08:01.720Z,9.29
2019-03-31T00:13:03.932Z,9.27
2019-03-31T00:18:07.126Z,9.23
2019-03-31T00:23:09.487Z,9.16
2019-03-31T00:28:11.740Z,9.11
2019-03-31T00:33:13.978Z,9.06
2019-03-31T00:38:16.282Z,9.00
2019-03-31T00:43:18.464Z,8.90
2019-03-31T00:48:20.723Z,8.81
2019-03-31T00:53:22.948Z,8.75
2019-03-31T00:58:25.588Z,8.70
2019-03-31T01:03:28.141Z,8.71
2019-03-31T01:08:31.090Z,8.75
2019-03-31T01:13:33.268Z,8.72
2019-03-31T01:18:35.436Z,8.71
2019-03-31T01:23:37.699Z,8.70
2019-03-31T01:28:39.837Z,8.72
2019-03-31T01:33:42.156Z,8.81
2019-03-31T01:38:44.432Z,8.85
2019-03-31T01:43:46.599Z,8.80
2019-03-31T01:48:49.881Z,8.74
2019-03-31T01:53:52.216Z,8.72
2019-03-31T01:58:54.417Z,8.70
2019-03-31T02:03:56.545Z,8.63
2019-03-31T02:08:59.205Z,8.57
2019-03-31T02:14:01.371Z,8.51
2019-03-31T02:19:03.641Z,8.40
2019-03-31T02:24:06.292Z,8.33
2019-03-31T02:29:08.469Z,8.30
2019-03-31T02:34:10.649Z,8.31
2019-03-31T02:39:12.903Z,8.36
2019-03-31T02:44:15.094Z,8.33
2019-03-31T02:49:17.223Z,8.31
2019-03-31T02:54:20.930Z,8.30
2019-03-31T02:59:23.183Z,8.31
2019-03-31T03:04:25.455Z,8.37
2019-03-31T03:09:27.712Z,8.38
2019-03-31T03:14:32.431Z,8.43
2019-03-31T03:19:34.553Z,8.44
2019-03-31T03:24:36.727Z,8.46
2019-03-31T03:29:38.918Z,8.54
2019-03-31T03:34:41.392Z,8.50
2019-03-31T03:39:43.684Z,8.33
2019-03-31T03:44:47.026Z,8.20
2019-03-31T03:49:49.183Z,8.06
2019-03-31T03:54:51.454Z,7.93
2019-03-31T03:59:54.065Z,7.82
2019-03-31T04:04:56.791Z,7.71
2019-03-31T04:10:00.428Z,7.60
2019-03-31T04:15:02.721Z,7.52
2019-03-31T04:20:05.433Z,7.44
2019-03-31T04:25:07.597Z,7.36
2019-03-31T04:30:09.762Z,7.13
2019-03-31T04:35:12.367Z,7.26
2019-03-31T04:40:14.576Z,7.23
2019-03-31T04:45:16.806Z,7.21
2019-03-31T04:50:18.927Z,7.18
2019-03-31T04:55:21.070Z,7.23
2019-03-31T05:00:23.276Z,7.25
2019-03-31T05:05:25.511Z,7.28
2019-03-31T05:10:27.658Z,7.30
2019-03-31T05:15:29.856Z,7.30
2019-03-31T05:20:32.123Z,7.27
2019-03-31T05:25:34.280Z,7.25
2019-03-31T05:30:36.564Z,7.20
2019-03-31T05:35:38.785Z,7.29
2019-03-31T05:40:41.059Z,7.29
2019-03-31T05:45:43.569Z,7.34
2019-03-31T05:50:46.096Z,7.39
2019-03-31T05:55:48.254Z,7.46
2019-03-31T06:00:50.904Z,7.49
2019-03-31T06:05:54.469Z,7.47
2019-03-31T06:10:56.618Z,7.46
2019-03-31T06:15:58.793Z,7.50
2019-03-31T06:21:00.999Z,7.52
2019-03-31T06:26:03.162Z,7.58
2019-03-31T06:31:05.430Z,7.68
2019-03-31T06:36:12.456Z,7.87
2019-03-31T06:41:14.701Z,7.93
2019-03-31T06:46:16.842Z,7.98
2019-03-31T06:51:19.232Z,8.23
2019-03-31T06:56:21.396Z,8.59
2019-03-31T07:01:24.411Z,8.78
2019-03-31T07:06:26.601Z,8.87
2019-03-31T07:11:28.820Z,8.89
2019-03-31T07:16:31.444Z,8.94
2019-03-31T07:21:33.671Z,8.93
2019-03-31T07:26:37.745Z,8.96
2019-03-31T07:31:39.915Z,9.01
2019-03-31T07:36:42.158Z,8.88
2019-03-31T07:41:45.553Z,8.91
2019-03-31T07:46:47.773Z,8.86
2019-03-31T07:51:50.186Z,8.95
2019-03-31T07:56:53.160Z,8.91
2019-03-31T08:01:56.106Z,8.92
2019-03-31T08:06:58.307Z,8.92
2019-03-31T08:12:00.955Z,8.89
2019-03-31T08:17:03.276Z,8.82
2019-03-31T08:22:05.580Z,8.83
2019-03-31T08:27:07.775Z,8.89
2019-03-31T08:32:10.110Z,8.86
2019-03-31T08:37:12.413Z,8.83
2019-03-31T08:42:14.581Z,8.80
2019-03-31T08:47:17.239Z,8.85
2019-03-31T08:52:19.420Z,8.87
2019-03-31T08:57:21.616Z,8.87
2019-03-31T09:02:24.122Z,8.83
2019-03-31T09:07:26.311Z,8.71
2019-03-31T09:12:28.429Z,8.70
2019-03-31T09:17:30.658Z,8.65
2019-03-31T09:22:33.054Z,8.64
2019-03-31T09:27:35.299Z,8.73
2019-03-31T09:32:37.617Z,8.74
2019-03-31T09:37:39.763Z,8.84
2019-03-31T09:42:41.903Z,9.06
2019-03-31T09:47:44.210Z,9.29
2019-03-31T09:52:46.428Z,9.44
2019-03-31T09:57:48.551Z,9.74
2019-03-31T10:02:50.748Z,9.86
2019-03-31T10:07:53.318Z,10.24
2019-03-31T10:12:55.494Z,10.62
2019-03-31T10:17:57.628Z,11.26
2019-03-31T10:22:59.844Z,11.57
2019-03-31T10:28:02.140Z,11.89
2019-03-31T10:33:04.489Z,12.30
2019-03-31T10:38:07.027Z,12.66
2019-03-31T10:43:09.207Z,13.10
2019-03-31T10:48:20.373Z,13.26
2019-03-31T10:53:15.377Z,13.29
2019-03-31T10:58:17.525Z,13.16
2019-03-31T11:03:19.678Z,13.35
2019-03-31T11:08:21.881Z,13.42
2019-03-31T11:13:24.772Z,12.85
2019-03-31T11:18:26.911Z,12.87
2019-03-31T11:23:29.040Z,13.16
2019-03-31T11:28:31.623Z,13.58
2019-03-31T11:33:33.940Z,13.57
2019-03-31T11:38:36.169Z,13.95
2019-03-31T11:43:38.431Z,14.25
2019-03-31T11:48:40.596Z,14.31
2019-03-31T11:53:42.779Z,14.44
2019-03-31T11:58:44.876Z,14.61
2019-03-31T12:03:47.233Z,15.01
2019-03-31T12:08:49.383Z,14.78
2019-03-31T12:13:51.545Z,14.75
2019-03-31T12:18:53.764Z,14.94
2019-03-31T12:23:55.929Z,14.17
2019-03-31T12:28:58.234Z,14.17
2019-03-31T12:34:00.528Z,13.95
2019-03-31T12:39:04.410Z,14.35
2019-03-31T12:44:07.046Z,15.88
2019-03-31T12:49:09.259Z,15.96
2019-03-31T12:54:11.394Z,16.03
2019-03-31T12:59:13.569Z,16.17
2019-03-31T13:04:16.160Z,15.98
2019-03-31T13:09:18.840Z,15.50
2019-03-31T13:14:21.010Z,14.76
2019-03-31T13:19:23.782Z,15.55
2019-03-31T13:24:25.964Z,15.93
2019-03-31T13:29:28.141Z,15.71
2019-03-31T13:34:30.393Z,15.78
2019-03-31T13:39:32.634Z,15.77
2019-03-31T13:44:35.188Z,15.22
2019-03-31T13:49:37.689Z,15.31
2019-03-31T13:54:39.829Z,15.74
2019-03-31T13:59:41.988Z,16.46
2019-03-31T14:04:54.502Z,15.81
2019-03-31T14:09:56.649Z,15.08
2019-03-31T14:14:58.795Z,15.44
2019-03-31T14:20:01.003Z,15.57
2019-03-31T14:25:03.697Z,15.64
2019-03-31T14:30:05.888Z,15.85
2019-03-31T14:35:08.068Z,15.98
2019-03-31T14:40:10.724Z,16.11
2019-03-31T14:45:27.108Z,16.17
2019-03-31T14:50:38.919Z,16.07
2019-03-31T14:55:41.071Z,16.13
2019-03-31T15:00:43.194Z,16.20
2019-03-31T15:05:45.428Z,16.32
2019-03-31T15:10:51.834Z,16.38
2019-03-31T15:15:53.980Z,15.99
2019-03-31T15:20:56.170Z,16.10
2019-03-31T15:25:58.497Z,16.29
2019-03-31T15:31:00.683Z,16.36
2019-03-31T15:36:02.831Z,16.42
2019-03-31T15:41:04.996Z,16.52
2019-03-31T15:46:07.486Z,16.32
2019-03-31T15:51:09.716Z,16.39
2019-03-31T15:56:11.859Z,16.27
2019-03-31T16:01:15.465Z,16.35
2019-03-31T16:06:17.735Z,16.25
2019-03-31T16:11:19.348Z,16.16
2019-03-31T16:16:20.972Z,16.18
2019-03-31T16:21:22.583Z,16.11
2019-03-31T16:26:24.157Z,15.91
2019-03-31T16:31:25.797Z,15.71
2019-03-31T16:36:27.459Z,15.64
2019-03-31T16:41:29.073Z,15.40
2019-03-31T16:46:30.681Z,15.28
2019-03-31T16:51:32.336Z,15.15
2019-03-31T16:56:34.947Z,14.84
2019-03-31T17:01:36.638Z,14.54
2019-03-31T17:06:38.299Z,14.49
2019-03-31T17:11:40.025Z,14.33
2019-03-31T17:16:41.720Z,14.20
2019-03-31T17:21:43.351Z,14.01
2019-03-31T17:26:44.925Z,13.83
2019-03-31T17:31:47.279Z,13.71
2019-03-31T17:36:49.173Z,13.51
2019-03-31T17:41:50.781Z,13.34
2019-03-31T17:46:52.808Z,13.11
2019-03-31T17:51:54.869Z,12.86
2019-03-31T17:56:56.445Z,12.69
2019-03-31T18:01:58.446Z,12.43
2019-03-31T18:07:00.042Z,12.14
2019-03-31T18:12:01.668Z,11.90
2019-03-31T18:17:03.268Z,11.69
2019-03-31T18:22:15.828Z,11.45
2019-03-31T18:27:09.003Z,11.29
2019-03-31T18:32:10.551Z,11.25
2019-03-31T18:37:12.228Z,10.93
2019-03-31T18:42:13.898Z,10.68
2019-03-31T18:47:15.632Z,10.49
2019-03-31T18:52:18.014Z,10.35
2019-03-31T18:57:19.865Z,10.22
2019-03-31T19:02:24.825Z,10.09
2019-03-31T19:07:25.064Z,9.97
2019-03-31T19:12:26.597Z,9.77
2019-03-31T19:17:28.211Z,9.62
2019-03-31T19:22:30.021Z,9.56
2019-03-31T19:27:32.661Z,9.42
2019-03-31T19:32:34.383Z,9.27
2019-03-31T19:37:36.070Z,9.15
2019-03-31T19:42:37.729Z,9.03
2019-03-31T19:47:39.384Z,8.90
2019-03-31T19:52:42.037Z,8.78
2019-03-31T19:57:43.903Z,8.60
2019-03-31T20:02:46.078Z,8.50
2019-03-31T20:07:48.057Z,8.38
2019-03-31T20:12:49.760Z,8.23
2019-03-31T20:17:51.353Z,8.12
2019-03-31T20:22:53.304Z,8.04
2019-03-31T20:27:54.973Z,7.94
2019-03-31T20:32:56.681Z,7.82
2019-03-31T20:37:58.246Z,7.67
2019-03-31T20:42:59.860Z,7.56
2019-03-31T20:48:01.528Z,7.44
2019-03-31T20:53:03.434Z,7.34
2019-03-31T20:58:05.026Z,7.28
2019-03-31T21:03:06.729Z,7.20
2019-03-31T21:08:08.362Z,7.05
2019-03-31T21:13:09.970Z,6.97
2019-03-31T21:18:11.599Z,6.90
2019-03-31T21:23:13.263Z,6.83
2019-03-31T21:28:14.903Z,6.70
2019-03-31T21:33:16.608Z,6.56
2019-03-31T21:38:18.621Z,6.50
2019-03-31T21:43:20.556Z,6.37
2019-03-31T21:48:22.116Z,6.28
2019-03-31T21:53:23.770Z,6.15
2019-03-31T21:58:25.401Z,6.07
2019-03-31T22:03:27.006Z,6.02
2019-03-31T22:08:28.660Z,5.93
2019-03-31T22:13:30.470Z,5.84
2019-03-31T22:18:32.108Z,5.74
2019-03-31T22:23:33.884Z,5.63
2019-03-31T22:28:35.740Z,5.55
2019-03-31T22:33:37.428Z,5.48
2019-03-31T22:38:39.364Z,5.43
2019-03-31T22:43:41.076Z,5.33
2019-03-31T22:48:43.064Z,5.23
2019-03-31T22:53:44.704Z,5.16
2019-03-31T22:58:46.298Z,5.08
2019-03-31T23:03:47.884Z,5.02
2019-03-31T23:08:49.486Z,4.94
2019-03-31T23:13:51.126Z,4.88
2019-03-31T23:18:52.735Z,4.80
2019-03-31T23:23:54.330Z,4.70
2019-03-31T23:28:56.628Z,4.65
2019-03-31T23:33:58.314Z,4.55
2019-03-31T23:39:00.024Z,4.49
2019-03-31T23:44:01.697Z,4.40
2019-03-31T23:49:03.383Z,4.34
2019-03-31T23:54:04.995Z,4.26
2019-03-31T23:59:06.641Z,4.20
